Time;durP1;ratioP1;P1;durP2;ratioP2;P2;SDS_P1;SDS_P2;PMS_P1;PMS_P2;Temp;Humidity;BMP_temperature;BMP_pressure;BME280_temperature;BME280_humidity;BME280_pressure;Samples;Min_cycle;Max_cycle;Signal;HPM_P1;HPM_P2
2022/08/09 05:11:46;;;;;;;;;;;;;;;9.89;100.00;100291.50;6153311;22;1830636;-89
2022/08/09 05:14:12;;;;;;;;;;;;;;;9.77;100.00;100286.59;6246392;23;20320;-89
2022/08/09 05:16:37;;;;;;;;;;;;;;;10.00;100.00;100286.72;6246152;23;19917;-90
2022/08/09 05:19:03;;;;;;;;;;;;;;;9.99;100.00;100289.44;6219780;23;19912;-88
2022/08/09 05:21:28;;;;;;;;;;;;;;;9.80;100.00;100283.84;6219973;23;20315;-94
2022/08/09 05:23:53;;;;;;;;;;;;;;;10.09;100.00;100285.56;6220647;23;19939;-92
2022/08/09 05:26:19;;;;;;;;;;;;;;;10.02;100.00;100285.81;6218498;23;19911;-90
2022/08/09 05:28:44;;;;;;;;;;;;;;;9.94;100.00;100291.34;6244299;23;19916;-90
2022/08/09 05:31:10;;;;;;;;;;;;;;;10.07;100.00;100292.69;6246466;23;19915;-88
2022/08/09 05:33:35;;;;;;;;;;;;;;;10.04;100.00;100289.28;6246112;23;19961;-88
2022/08/09 05:36:03;;;;;;;;;;;;;;;9.91;100.00;100288.81;6245733;23;20231;-90
2022/08/09 05:38:31;;;;;;;;;;;;;;;10.14;100.00;100298.66;6245592;23;19912;-88
2022/08/09 05:41:04;;;;;;;;;;;;;;;10.06;100.00;100295.38;6244313;22;19918;-90
2022/08/09 05:52:52;;;;;;;;;;;;;;;10.23;100.00;100300.09;6204902;22;20009;-89
2022/08/09 05:55:17;;;;;;;;;;;;;;;10.10;100.00;100297.00;6188285;23;19923;-89
2022/08/09 05:57:42;;;;;;;;;;;;;;;10.11;100.00;100301.38;6215219;23;19912;-89
2022/08/09 06:00:08;;;;;;;;;;;;;;;10.17;100.00;100298.53;6215409;23;19912;-89
2022/08/09 06:02:33;;;;;;;;;;;;;;;10.03;100.00;100295.47;6189055;23;20275;-88
2022/08/09 06:04:59;;;;;;;;;;;;;;;10.12;100.00;100305.78;6215469;23;19912;-87
2022/08/09 06:07:24;;;;;;;;;;;;;;;10.15;100.00;100305.69;6188706;23;19927;-89
2022/08/09 06:09:49;;;;;;;;;;;;;;;10.06;100.00;100303.31;6186824;23;19916;-89
2022/08/09 06:12:42;;;;;;;;;;;;;;;;;;;;;
2022/08/09 06:15:08;;;;;;;;;;;;;;;10.24;100.00;100320.38;6214851;23;19986;-90
2022/08/09 06:17:33;;;;;;;;;;;;;;;10.05;100.00;100314.81;6215485;23;20308;-90
2022/08/09 06:19:58;;;;;;;;;;;;;;;10.12;100.00;100316.38;6215019;23;19922;-90
2022/08/09 06:22:24;;;;;;;;;;;;;;;10.20;100.00;100319.63;6215168;23;19916;-88
2022/08/09 06:24:49;;;;;;;;;;;;;;;10.06;100.00;100320.06;6213405;23;20239;-89
2022/08/09 06:27:17;;;;;;;;;;;;;;;10.18;100.00;100326.78;6214953;23;20328;-89
2022/08/09 06:29:42;;;;;;;;;;;;;;;10.28;100.00;100330.84;6188747;23;19962;-90
2022/08/09 06:32:08;;;;;;;;;;;;;;;10.16;100.00;100329.47;6188418;23;19919;-88
2022/08/09 06:34:33;;;;;;;;;;;;;;;10.31;100.00;100321.94;6214928;23;20240;-91
2022/08/09 06:36:58;;;;;;;;;;;;;;;10.26;100.00;100332.69;6214832;23;19965;-90
2022/08/09 06:39:23;;;;;;;;;;;;;;;10.13;100.00;100331.31;6214999;23;19922;-90
2022/08/09 06:41:49;;;;;;;;;;;;;;;10.36;100.00;100336.78;6214378;23;19939;-91
2022/08/09 07:57:07;;;;;;;;;;;;;;;10.32;100.00;100345.75;6243006;23;19939;-86
2022/08/09 07:59:32;;;;;;;;;;;;;;;10.36;100.00;100347.38;6250116;23;20351;-85
2022/08/09 08:01:58;;;;;;;;;;;;;;;10.48;100.00;100350.53;6220419;23;19958;-91
2022/08/09 08:04:23;;;;;;;;;;;;;;;10.30;100.00;100346.69;6250470;23;19912;-94
2022/08/09 08:06:49;;;;;;;;;;;;;;;10.35;100.00;100358.00;6251243;23;19912;-93
2022/08/09 08:09:15;;;;;;;;;;;;;;;10.47;100.00;100348.81;6222955;23;19966;-93
2022/08/09 08:11:40;;;;;;;;;;;;;;;10.32;100.00;100351.06;6248976;23;20325;-85
2022/08/09 08:14:06;;;;;;;;;;;;;;;10.44;100.00;100351.56;6249788;23;19942;-90
2022/08/09 08:16:31;;;;;;;;;;;;;;;10.45;100.00;100348.88;6246941;23;19951;-86
2022/08/09 08:18:56;;;;;;;;;;;;;;;10.32;100.00;100352.78;6245497;23;19922;-84
2022/08/09 08:21:22;;;;;;;;;;;;;;;10.46;100.00;100362.97;6246357;23;19912;-92
2022/08/09 08:23:49;;;;;;;;;;;;;;;10.44;100.00;100354.22;6245741;23;20006;-86
2022/08/09 08:26:14;;;;;;;;;;;;;;;10.20;100.00;100355.84;6219425;23;20349;-89
2022/08/09 08:28:39;;;;;;;;;;;;;;;10.29;100.00;100353.78;6248513;23;20001;-90
2022/08/09 08:31:05;;;;;;;;;;;;;;;10.29;100.00;100351.13;6219551;23;20243;-88
2022/08/09 08:33:30;;;;;;;;;;;;;;;10.26;100.00;100355.63;6245044;23;19911;-92
2022/08/09 08:35:55;;;;;;;;;;;;;;;10.45;100.00;100345.31;6245610;23;19942;-90
2022/08/09 08:38:20;;;;;;;;;;;;;;;10.44;100.00;100348.91;6217521;23;19916;-89
2022/08/09 08:40:46;;;;;;;;;;;;;;;10.27;100.00;100347.63;6246131;23;19943;-87
2022/08/09 08:43:11;;;;;;;;;;;;;;;10.50;100.00;100343.41;6245896;23;19919;-84
2022/08/09 08:45:45;;;;;;;;;;;;;;;10.52;100.00;100341.56;6243736;23;19938;-85
2022/08/09 08:48:10;;;;;;;;;;;;;;;10.36;100.00;100342.06;6245875;23;20389;-87
2022/08/09 08:50:36;;;;;;;;;;;;;;;10.46;100.00;100339.97;6245301;23;19911;-84
2022/08/09 08:53:01;;;;;;;;;;;;;;;10.56;100.00;100340.53;6245228;23;19942;-83
2022/08/09 08:55:29;;;;;;;;;;;;;;;10.42;100.00;100340.13;6244424;23;20346;-83
2022/08/09 08:57:54;;;;;;;;;;;;;;;10.44;100.00;100351.56;6244357;23;19926;-83
2022/08/09 09:00:20;;;;;;;;;;;;;;;10.51;100.00;100346.00;6219011;23;19915;-82
2022/08/09 09:02:47;;;;;;;;;;;;;;;10.39;100.00;100345.53;6243753;23;19912;-85
2022/08/09 09:05:13;;;;;;;;;;;;;;;10.50;100.00;100349.56;6245900;23;19911;-87
2022/08/09 09:07:42;;;;;;;;;;;;;;;10.49;100.00;100339.03;6217896;23;20425;-86
2022/08/09 09:10:10;;;;;;;;;;;;;;;10.40;100.00;100342.81;6244335;23;19987;-85
2022/08/09 09:12:35;;;;;;;;;;;;;;;10.44;100.00;100349.78;6245490;23;20566;-83
2022/08/09 09:15:01;;;;;;;;;;;;;;;10.52;100.00;100341.56;6243865;23;19912;-86
2022/08/09 09:17:27;;;;;;;;;;;;;;;10.39;100.00;100337.56;6218750;23;19923;-87
2022/08/09 09:19:53;;;;;;;;;;;;;;;10.59;100.00;100342.22;6244679;23;19923;-84
2022/08/09 09:22:19;;;;;;;;;;;;;;;10.60;100.00;100336.88;6218049;23;19912;-83
2022/08/09 09:24:45;;;;;;;;;;;;;;;10.42;100.00;100350.72;6217660;23;19922;-83
2022/08/09 09:27:19;;;;;;;;;;;;;;;10.51;100.00;100342.47;6245583;23;19915;-84
2022/08/09 09:29:44;;;;;;;;;;;;;;;10.58;100.00;100330.75;6246011;23;19970;-83
2022/08/09 09:32:13;;;;;;;;;;;;;;;10.39;100.00;100340.22;6245590;23;19916;-85
2022/08/09 09:34:41;;;;;;;;;;;;;;;10.41;100.00;100343.72;6245668;23;20415;-86
2022/08/09 09:37:06;;;;;;;;;;;;;;;10.50;100.00;100338.97;6244568;23;20455;-84
2022/08/09 09:39:31;;;;;;;;;;;;;;;10.33;100.00;100336.00;6243413;23;19930;-84
2022/08/09 09:41:58;;;;;;;;;;;;;;;13.38;100.00;100332.06;6245871;23;19912;-84
2022/08/09 09:44:33;;;;;;;;;;;;;;;15.10;93.32;100345.03;6219431;23;20232;-84
2022/08/09 09:47:08;;;;;;;;;;;;;;;11.85;100.00;100336.75;6245388;23;20330;-85
2022/08/09 09:49:34;;;;;;;;;;;;;;;11.18;100.00;100336.56;6243969;23;19918;-87
2022/08/09 09:52:04;;;;;;;;;;;;;;;11.17;100.00;100328.69;6245834;23;19983;-83
2022/08/09 09:54:48;;;;;;;;;;;;;;;10.91;100.00;100333.13;6242841;23;19912;-82
2022/08/09 09:57:14;;;;;;;;;;;;;;;10.75;100.00;100342.56;6245190;23;19978;-84
2022/08/09 09:59:41;;;;;;;;;;;;;;;10.85;100.00;100338.66;6245312;23;20320;-86
2022/08/09 10:02:07;;;;;;;;;;;;;;;10.90;100.00;100332.28;6245688;23;19912;-84
2022/08/09 10:04:32;;;;;;;;;;;;;;;10.63;100.00;100322.66;6245802;23;20243;-82
2022/08/09 10:06:57;;;;;;;;;;;;;;;10.70;100.00;100332.97;6245508;23;19911;-84
2022/08/09 10:09:23;;;;;;;;;;;;;;;10.72;100.00;100323.19;6217401;23;19915;-89
2022/08/09 10:11:55;;;;;;;;;;;;;;;10.54;100.00;100323.81;6245058;23;19991;-84
2022/08/09 10:14:24;;;;;;;;;;;;;;;10.70;100.00;100321.50;6245355;23;19947;-86
2022/08/09 10:16:50;;;;;;;;;;;;;;;10.78;100.00;100332.72;6244228;23;19920;-86
2022/08/09 10:19:15;;;;;;;;;;;;;;;10.66;100.00;100334.00;6245059;23;19912;-82
2022/08/09 10:21:44;;;;;;;;;;;;;;;10.64;100.00;100325.25;6244674;23;19990;-83
2022/08/09 10:24:10;;;;;;;;;;;;;;;10.72;100.00;100325.84;6243245;23;19934;-83
2022/08/09 10:26:36;;;;;;;;;;;;;;;10.57;100.00;100329.03;6245002;23;20327;-84
2022/08/09 10:29:01;;;;;;;;;;;;;;;10.52;100.00;100320.38;6245272;23;19912;-85
2022/08/09 10:31:26;;;;;;;;;;;;;;;10.72;100.00;100320.56;6245062;23;20385;-85
2022/08/09 10:33:51;;;;;;;;;;;;;;;10.54;100.00;100308.78;6218608;23;19912;-85
2022/08/09 10:36:17;;;;;;;;;;;;;;;10.57;100.00;100317.56;6243524;23;19916;-85
2022/08/09 10:38:45;;;;;;;;;;;;;;;10.67;100.00;100318.97;6216882;23;19912;-84
2022/08/09 10:41:12;;;;;;;;;;;;;;;10.50;100.00;100308.97;6245232;23;19986;-85
2022/08/09 10:43:41;;;;;;;;;;;;;;;10.41;100.00;100303.97;6218165;23;19916;-81
2022/08/09 10:46:25;;;;;;;;;;;;;;;10.64;100.00;100309.34;6244949;23;20224;-84
2022/08/09 10:48:54;;;;;;;;;;;;;;;10.50;100.00;100306.31;6244935;23;19915;-87
2022/08/09 10:51:27;;;;;;;;;;;;;;;10.48;100.00;100303.72;6244626;23;20315;-86
2022/08/09 10:54:04;;;;;;;;;;;;;;;10.60;100.00;100302.41;6243476;23;20239;-85
2022/08/09 10:56:32;;;;;;;;;;;;;;;10.56;100.00;100310.53;6244432;23;19997;-84
2022/08/09 10:58:58;;;;;;;;;;;;;;;10.50;100.00;100308.97;6244932;23;19923;-86
2022/08/09 11:01:30;;;;;;;;;;;;;;;10.62;100.00;100316.47;6244942;23;20349;-87
2022/08/09 11:04:07;;;;;;;;;;;;;;;10.71;100.00;100310.00;6244834;23;19916;-84
2022/08/09 11:06:33;;;;;;;;;;;;;;;10.56;100.00;100306.06;6245178;23;20353;-87
2022/08/09 11:08:59;;;;;;;;;;;;;;;10.66;100.00;100304.00;6243484;23;19957;-88
2022/08/09 11:11:24;;;;;;;;;;;;;;;10.53;100.00;100303.56;6244985;23;20374;-83
2022/08/09 11:14:09;;;;;;;;;;;;;;;10.49;100.00;100299.28;6244857;23;19986;-84
2022/08/09 11:16:36;;;;;;;;;;;;;;;10.67;100.00;100301.31;6243576;23;19915;-88
2022/08/09 11:19:02;;;;;;;;;;;;;;;10.58;100.00;100298.97;6244510;23;19912;-85
2022/08/09 11:21:46;;;;;;;;;;;;;;;10.45;100.00;100297.63;6244655;23;19954;-84
2022/08/09 11:24:12;;;;;;;;;;;;;;;10.57;100.00;100301.66;6242296;23;20340;-84
2022/08/09 11:26:38;;;;;;;;;;;;;;;10.54;100.00;100295.53;6244636;23;19966;-85
2022/08/09 11:29:03;;;;;;;;;;;;;;;10.32;100.00;100292.78;6244531;23;19912;-84
2022/08/09 11:31:35;;;;;;;;;;;;;;;10.49;100.00;100294.84;6244702;23;19938;-83
2022/08/09 11:34:02;;;;;;;;;;;;;;;10.61;100.00;100290.03;6244349;23;19912;-84
2022/08/09 11:36:37;;;;;;;;;;;;;;;10.37;100.00;100295.28;6244629;23;19912;-86
2022/08/09 11:39:03;;;;;;;;;;;;;;;10.45;100.00;100293.22;6243569;23;19969;-84
2022/08/09 11:41:29;;;;;;;;;;;;;;;10.58;100.00;100296.31;6244451;23;19914;-85
2022/08/09 11:43:55;;;;;;;;;;;;;;;10.38;100.00;100296.13;6244970;23;19943;-86
2022/08/09 11:46:21;;;;;;;;;;;;;;;10.54;100.00;100286.72;6245069;23;19908;-84
2022/08/09 11:48:48;;;;;;;;;;;;;;;10.39;100.00;100288.13;6244693;23;20053;-86
2022/08/09 11:51:14;;;;;;;;;;;;;;;10.39;100.00;100293.44;6244675;23;19911;-84
2022/08/09 11:53:39;;;;;;;;;;;;;;;10.60;100.00;100289.16;6243195;23;20212;-87
2022/08/09 11:56:14;;;;;;;;;;;;;;;10.25;100.00;100291.22;6243646;23;19946;-86
2022/08/09 11:58:52;;;;;;;;;;;;;;;10.35;100.00;100282.09;6244048;23;19918;-84
2022/08/09 12:01:18;;;;;;;;;;;;;;;10.36;100.00;100273.19;6244626;23;19915;-84
2022/08/09 12:03:45;;;;;;;;;;;;;;;10.25;100.00;100270.03;6244485;23;20018;-84
2022/08/09 12:06:18;;;;;;;;;;;;;;;10.42;100.00;100277.44;6245189;23;19912;-86
2022/08/09 12:08:48;;;;;;;;;;;;;;;10.61;100.00;100272.38;6244704;23;19911;-86
2022/08/09 12:11:15;;;;;;;;;;;;;;;10.43;100.00;100283.59;6246494;23;19912;-84
2022/08/09 12:13:41;;;;;;;;;;;;;;;10.51;100.00;100293.03;6219514;23;20349;-84
2022/08/09 12:16:08;;;;;;;;;;;;;;;10.57;100.00;100276.03;6246196;23;19918;-85
2022/08/09 12:18:34;;;;;;;;;;;;;;;10.44;100.00;100277.38;6246272;23;19916;-85
2022/08/09 12:21:01;;;;;;;;;;;;;;;10.50;100.00;100274.53;6246438;23;19907;-85
2022/08/09 12:23:27;;;;;;;;;;;;;;;10.62;100.00;100268.78;6245415;23;19912;-87
2022/08/09 12:25:53;;;;;;;;;;;;;;;10.54;100.00;100265.53;6219894;23;19995;-85
2022/08/09 12:28:22;;;;;;;;;;;;;;;10.66;100.00;100265.09;6246211;23;19911;-88
2022/08/09 12:30:48;;;;;;;;;;;;;;;10.75;100.00;100255.09;6246170;23;20251;-84
2022/08/09 12:33:14;;;;;;;;;;;;;;;10.48;100.00;100263.97;6245519;23;19916;-82
2022/08/09 12:35:39;;;;;;;;;;;;;;;10.46;100.00;100262.28;6245076;23;19912;-84
2022/08/09 12:38:17;;;;;;;;;;;;;;;10.64;100.00;100266.97;6245227;23;20346;-85
2022/08/09 12:40:43;;;;;;;;;;;;;;;10.47;100.00;100256.09;6246259;23;19911;-88
2022/08/09 12:43:09;;;;;;;;;;;;;;;10.51;100.00;100257.69;6245778;23;19919;-86
2022/08/09 12:45:34;;;;;;;;;;;;;;;10.64;100.00;100256.34;6218987;23;19920;-86
2022/08/09 12:47:59;;;;;;;;;;;;;;;10.56;100.00;100250.44;6245818;23;20034;-85
2022/08/09 12:50:25;;;;;;;;;;;;;;;10.63;100.00;100254.63;6245974;23;20511;-86
2022/08/09 12:52:51;;;;;;;;;;;;;;;10.72;100.00;100251.63;6219436;23;20379;-90
2022/08/09 12:55:29;;;;;;;;;;;;;;;10.65;100.00;100249.25;6244463;23;19916;-87
2022/08/09 12:57:54;;;;;;;;;;;;;;;10.57;100.00;100246.03;6247125;23;20381;-89
2022/08/09 13:00:20;;;;;;;;;;;;;;;10.82;100.00;100249.50;6247469;23;19912;-89
2022/08/09 13:02:50;;;;;;;;;;;;;;;10.88;100.00;100259.00;6246156;23;19982;-85
2022/08/09 13:05:17;;;;;;;;;;;;;;;10.63;100.00;100248.47;6246585;23;19995;-94
2022/08/09 13:07:42;;;;;;;;;;;;;;;10.72;100.00;100258.69;6220694;23;19908;-90
2022/08/09 13:10:07;;;;;;;;;;;;;;;10.67;100.00;100239.47;6245241;23;19918;-87
2022/08/09 13:12:33;;;;;;;;;;;;;;;10.46;100.00;100243.75;6246939;23;19918;-92
2022/08/09 13:15:04;;;;;;;;;;;;;;;10.73;100.00;100240.09;6220528;23;19911;-91
2022/08/09 13:17:29;;;;;;;;;;;;;;;10.78;100.00;100253.19;6246656;23;19915;-89
2022/08/09 13:19:58;;;;;;;;;;;;;;;10.60;100.00;100238.81;6246418;23;19915;-90
2022/08/09 13:22:24;;;;;;;;;;;;;;;10.69;100.00;100243.81;6219460;23;20243;-91
2022/08/09 13:24:52;;;;;;;;;;;;;;;10.64;100.00;100234.28;6244778;23;19965;-92
2022/08/09 13:27:24;;;;;;;;;;;;;;;10.59;100.00;100223.84;6245428;23;19916;-90
2022/08/09 13:29:57;;;;;;;;;;;;;;;10.63;100.00;100236.06;6244533;23;19946;-89
2022/08/09 13:32:23;;;;;;;;;;;;;;;10.80;100.00;100229.28;6245915;23;19974;-87
2022/08/09 13:34:48;;;;;;;;;;;;;;;10.67;100.00;100235.03;6245607;23;20619;-93
2022/08/09 13:37:14;;;;;;;;;;;;;;;10.45;100.00;100218.16;6245641;23;19916;-93
2022/08/09 13:39:40;;;;;;;;;;;;;;;10.71;100.00;100226.03;6244676;23;19912;-91
2022/08/09 13:42:16;;;;;;;;;;;;;;;10.62;100.00;100225.50;6245254;23;19920;-92
2022/08/09 13:44:42;;;;;;;;;;;;;;;10.57;100.00;100225.69;6246271;23;19916;-89
2022/08/09 13:47:10;;;;;;;;;;;;;;;10.90;100.00;100230.69;6245774;23;19943;-92
2022/08/09 13:49:36;;;;;;;;;;;;;;;10.93;100.00;100227.03;6245912;23;19912;-89
2022/08/09 13:52:01;;;;;;;;;;;;;;;10.64;100.00;100213.94;6245680;23;20430;-89
2022/08/09 13:54:27;;;;;;;;;;;;;;;10.85;100.00;100216.72;6218187;23;19911;-90
2022/08/09 13:56:52;;;;;;;;;;;;;;;10.88;100.00;100217.47;6246119;23;19973;-94
2022/08/09 13:59:17;;;;;;;;;;;;;;;10.75;100.00;100225.94;6246673;23;19950;-90
2022/08/09 14:01:42;;;;;;;;;;;;;;;10.81;100.00;100223.06;6245367;23;20236;-91
2022/08/09 14:04:08;;;;;;;;;;;;;;;10.84;100.00;100218.50;6246932;23;19943;-91
2022/08/09 14:06:33;;;;;;;;;;;;;;;10.52;100.00;100219.69;6246293;23;19923;-91
2022/08/09 14:08:58;;;;;;;;;;;;;;;10.67;100.00;100208.53;6218807;23;19911;-92
2022/08/09 14:11:23;;;;;;;;;;;;;;;10.64;100.00;100207.78;6246683;23;20026;-88
2022/08/09 14:13:49;;;;;;;;;;;;;;;10.64;100.00;100202.47;6246240;23;20243;-93
2022/08/09 14:16:15;;;;;;;;;;;;;;;10.64;100.00;100205.13;6218432;23;20316;-88
2022/08/09 14:18:42;;;;;;;;;;;;;;;10.73;100.00;100191.53;6245547;23;20342;-88
2022/08/09 14:21:07;;;;;;;;;;;;;;;10.68;100.00;100204.94;6245945;23;19908;-84
2022/08/09 14:23:32;;;;;;;;;;;;;;;10.64;100.00;100197.16;6217737;23;20246;-87
2022/08/09 14:25:57;;;;;;;;;;;;;;;10.81;100.00;100196.56;6245822;23;20243;-87
2022/08/09 14:28:23;;;;;;;;;;;;;;;10.66;100.00;100200.66;6245592;23;19911;-86
2022/08/09 14:30:48;;;;;;;;;;;;;;;10.64;100.00;100191.88;6218359;23;19919;-85
2022/08/09 14:33:13;;;;;;;;;;;;;;;10.79;100.00;100201.06;6245661;23;19908;-86
2022/08/09 14:35:39;;;;;;;;;;;;;;;10.82;100.00;100185.03;6246120;23;20381;-89
2022/08/09 14:38:04;;;;;;;;;;;;;;;10.66;100.00;100188.25;6243612;23;19915;-84
2022/08/09 14:40:30;;;;;;;;;;;;;;;10.76;100.00;100185.28;6245103;23;20381;-90
2022/08/09 14:42:55;;;;;;;;;;;;;;;10.73;100.00;100197.69;6245927;23;19911;-84
2022/08/09 14:45:20;;;;;;;;;;;;;;;10.79;100.00;100187.81;6218667;23;19980;-86
2022/08/09 14:47:46;;;;;;;;;;;;;;;10.83;100.00;100182.34;6243412;23;19927;-83
2022/08/09 14:50:11;;;;;;;;;;;;;;;10.81;100.00;100186.81;6244526;23;19916;-84
2022/08/09 14:52:36;;;;;;;;;;;;;;;10.61;100.00;100184.03;6216701;23;19911;-85
2022/08/09 14:55:02;;;;;;;;;;;;;;;10.78;100.00;100189.56;6241799;23;19918;-84
2022/08/09 14:57:27;;;;;;;;;;;;;;;10.57;100.00;100188.59;6243039;23;19920;-85
2022/08/09 14:59:52;;;;;;;;;;;;;;;10.50;100.00;100185.28;6244320;23;19918;-84
2022/08/09 15:02:18;;;;;;;;;;;;;;;10.77;100.00;100174.59;6242318;23;19916;-85
2022/08/09 15:04:44;;;;;;;;;;;;;;;10.77;100.00;100181.69;6245365;23;20248;-85
2022/08/09 15:07:09;;;;;;;;;;;;;;;10.63;100.00;100190.16;6245442;23;19912;-85
2022/08/09 15:09:34;;;;;;;;;;;;;;;10.81;100.00;100178.84;6243711;23;19941;-84
2022/08/09 15:11:59;;;;;;;;;;;;;;;10.74;100.00;100193.28;6244725;23;19943;-87
2022/08/09 15:14:25;;;;;;;;;;;;;;;10.77;100.00;100179.03;6242169;23;19915;-85
2022/08/09 15:16:50;;;;;;;;;;;;;;;10.79;100.00;100175.41;6244829;23;19999;-84
2022/08/09 15:19:16;;;;;;;;;;;;;;;11.02;100.00;100179.81;6244492;23;20627;-85
2022/08/09 15:21:42;;;;;;;;;;;;;;;10.99;100.00;100179.09;6217625;23;19911;-85
2022/08/09 15:24:07;;;;;;;;;;;;;;;11.01;100.00;100179.88;6243771;23;19912;-87
2022/08/09 15:26:33;;;;;;;;;;;;;;;11.15;100.00;100174.06;6243770;23;20052;-88
2022/08/09 15:28:59;;;;;;;;;;;;;;;10.89;100.00;100182.06;6218339;23;20631;-92
2022/08/09 15:31:27;;;;;;;;;;;;;;;10.83;100.00;100181.44;6245297;23;20339;-84
2022/08/09 15:33:53;;;;;;;;;;;;;;;11.01;100.00;100180.75;6247376;23;19911;-92
2022/08/09 15:36:18;;;;;;;;;;;;;;;10.86;100.00;100186.63;6219549;23;19926;-90
2022/08/09 15:38:43;;;;;;;;;;;;;;;10.75;100.00;100178.22;6248385;23;19912;-92
2022/08/09 15:41:09;;;;;;;;;;;;;;;10.88;100.00;100184.78;6247220;23;20296;-87
2022/08/09 15:43:36;;;;;;;;;;;;;;;10.92;100.00;100181.09;6220391;23;19926;-92
2022/08/09 15:46:01;;;;;;;;;;;;;;;10.79;100.00;100178.06;6248928;23;19911;-89
2022/08/09 15:48:27;;;;;;;;;;;;;;;10.94;100.00;100184.56;6249207;23;19920;-94
2022/08/09 15:50:52;;;;;;;;;;;;;;;10.89;100.00;100175.91;6222860;23;19977;-94
2022/08/09 15:53:17;;;;;;;;;;;;;;;10.81;100.00;100178.84;6247869;23;19915;-93
2022/08/09 15:55:43;;;;;;;;;;;;;;;11.00;100.00;100179.03;6247229;23;19911;-91
2022/08/09 15:58:08;;;;;;;;;;;;;;;11.05;100.00;100169.09;6249018;23;19935;-93
2022/08/09 16:00:36;;;;;;;;;;;;;;;10.77;100.00;100171.06;6249329;23;19931;-94
2022/08/09 16:03:01;;;;;;;;;;;;;;;10.85;100.00;100172.53;6249141;23;19935;-93
2022/08/09 16:05:28;;;;;;;;;;;;;;;11.01;100.00;100179.88;6247759;23;20312;-90
2022/08/09 16:07:53;;;;;;;;;;;;;;;10.87;100.00;100175.97;6248977;23;19996;-91
2022/08/09 16:10:19;;;;;;;;;;;;;;;10.79;100.00;100163.94;6248548;23;20252;-92
2022/08/09 16:12:44;;;;;;;;;;;;;;;11.00;100.00;100165.75;6221993;23;19922;-91
2022/08/09 16:15:10;;;;;;;;;;;;;;;10.70;100.00;100163.34;6247848;23;19937;-90
2022/08/09 16:17:36;;;;;;;;;;;;;;;10.81;100.00;100162.94;6248064;23;19912;-93
2022/08/09 16:20:04;;;;;;;;;;;;;;;10.89;100.00;100170.63;6221006;23;19919;-84
2022/08/09 16:22:29;;;;;;;;;;;;;;;10.59;100.00;100162.88;6220387;23;20290;-87
2022/08/09 16:24:55;;;;;;;;;;;;;;;10.74;100.00;100164.13;6246044;23;19915;-85
2022/08/09 16:27:20;;;;;;;;;;;;;;;10.86;100.00;100176.03;6221061;23;19918;-91
2022/08/09 16:29:45;;;;;;;;;;;;;;;10.83;100.00;100169.09;6247669;23;19911;-88
2022/08/09 16:32:11;;;;;;;;;;;;;;;10.75;100.00;100157.03;6247458;23;19912;-88
2022/08/09 16:34:41;;;;;;;;;;;;;;;10.89;100.00;100166.16;6221606;23;19911;-94
2022/08/09 16:37:06;;;;;;;;;;;;;;;10.78;100.00;100167.50;6220601;23;19935;-85
2022/08/09 16:39:32;;;;;;;;;;;;;;;10.83;100.00;100165.53;6246593;23;19915;-87
2022/08/09 16:41:57;;;;;;;;;;;;;;;10.92;100.00;100165.19;6219812;23;19915;-90
2022/08/09 16:44:22;;;;;;;;;;;;;;;10.79;100.00;100174.56;6246515;23;19915;-84
2022/08/09 16:46:48;;;;;;;;;;;;;;;10.64;100.00;100165.38;6246611;23;19912;-89
2022/08/09 16:49:13;;;;;;;;;;;;;;;10.75;100.00;100172.94;6221011;23;19916;-96
2022/08/09 16:51:39;;;;;;;;;;;;;;;10.72;100.00;100165.94;6248458;23;19932;-89
2022/08/09 16:54:05;;;;;;;;;;;;;;;10.63;100.00;100164.50;6246907;23;19915;-91
2022/08/09 16:56:30;;;;;;;;;;;;;;;10.76;100.00;100172.88;6219883;23;19939;-92
2022/08/09 16:58:56;;;;;;;;;;;;;;;10.56;100.00;100163.00;6250067;23;19915;-91
2022/08/09 17:01:21;;;;;;;;;;;;;;;10.65;100.00;100160.00;6250001;23;19911;-93
2022/08/09 17:03:47;;;;;;;;;;;;;;;10.59;100.00;100159.38;6249591;23;19911;-89
2022/08/09 17:06:12;;;;;;;;;;;;;;;10.45;100.00;100165.19;6249015;23;19962;-93
2022/08/09 17:08:39;;;;;;;;;;;;;;;10.70;100.00;100170.44;6245502;23;19911;-85
2022/08/09 17:11:04;;;;;;;;;;;;;;;10.60;100.00;100164.63;6247412;23;19918;-94
2022/08/09 17:13:30;;;;;;;;;;;;;;;10.52;100.00;100174.66;6247200;23;19986;-94
2022/08/09 17:15:55;;;;;;;;;;;;;;;10.81;100.00;100172.69;6246706;23;19916;-86
2022/08/09 17:18:22;;;;;;;;;;;;;;;10.60;100.00;100169.94;6247155;23;19918;-92
2022/08/09 17:20:47;;;;;;;;;;;;;;;10.66;100.00;100180.31;6247822;23;20002;-94
2022/08/09 17:23:16;;;;;;;;;;;;;;;10.78;100.00;100188.72;6246486;23;20244;-95
2022/08/09 17:25:43;;;;;;;;;;;;;;;10.66;100.00;100180.31;6247219;23;19919;-89
2022/08/09 17:28:09;;;;;;;;;;;;;;;10.66;100.00;100180.31;6246670;23;20328;-89
2022/08/09 17:30:35;;;;;;;;;;;;;;;10.61;100.00;100182.25;6220030;23;19976;-85
2022/08/09 17:33:04;;;;;;;;;;;;;;;10.49;100.00;100190.66;6246399;23;19969;-88
2022/08/09 17:35:32;;;;;;;;;;;;;;;10.59;100.00;100188.53;6245705;23;19919;-87
2022/08/09 17:37:57;;;;;;;;;;;;;;;10.61;100.00;100184.91;6246437;23;19916;-84
2022/08/09 17:40:23;;;;;;;;;;;;;;;10.55;100.00;100187.78;6246032;23;19919;-86
2022/08/09 17:42:49;;;;;;;;;;;;;;;10.73;100.00;100192.38;6248122;23;19948;-87
2022/08/09 17:45:14;;;;;;;;;;;;;;;10.72;100.00;100190.69;6249851;23;19994;-86
2022/08/09 17:47:40;;;;;;;;;;;;;;;10.52;100.00;100188.75;6247078;23;19915;-85
2022/08/09 17:50:06;;;;;;;;;;;;;;;10.65;100.00;100193.59;6247156;23;20045;-85
2022/08/09 17:52:32;;;;;;;;;;;;;;;10.53;100.00;100190.50;6246937;23;19918;-85
2022/08/09 17:54:58;;;;;;;;;;;;;;;10.46;100.00;100190.75;6244567;23;19998;-86
2022/08/09 17:57:23;;;;;;;;;;;;;;;10.64;100.00;100192.75;6218940;23;19915;-88
2022/08/09 17:59:49;;;;;;;;;;;;;;;10.52;100.00;100190.53;6246788;23;19911;-91
2022/08/09 18:02:14;;;;;;;;;;;;;;;10.53;100.00;100195.78;6247115;23;19938;-85
2022/08/09 18:04:41;;;;;;;;;;;;;;;10.69;100.00;100201.41;6247339;23;19946;-94
2022/08/09 18:07:07;;;;;;;;;;;;;;;10.40;100.00;100198.91;6222386;23;19912;-88
2022/08/09 18:09:33;;;;;;;;;;;;;;;10.51;100.00;100199.41;6220716;23;19943;-91
2022/08/09 18:11:58;;;;;;;;;;;;;;;10.63;100.00;100195.47;6247781;23;19958;-94
2022/08/09 18:14:25;;;;;;;;;;;;;;;10.56;100.00;100194.78;6251536;23;20437;-92
2022/08/09 18:16:50;;;;;;;;;;;;;;;10.57;100.00;100196.53;6251722;23;19999;-95
2022/08/09 18:19:17;;;;;;;;;;;;;;;10.68;100.00;100191.69;6248097;23;19915;-90
2022/08/09 18:21:42;;;;;;;;;;;;;;;10.51;100.00;100194.09;6224190;23;19915;-95
2022/08/09 18:24:08;;;;;;;;;;;;;;;10.49;100.00;100195.94;6245922;23;19919;-90
2022/08/09 18:26:34;;;;;;;;;;;;;;;10.66;100.00;100196.19;6247063;23;19986;-95
2022/08/09 18:28:59;;;;;;;;;;;;;;;10.50;100.00;100203.00;6222485;23;20316;-95
2022/08/09 18:31:24;;;;;;;;;;;;;;;10.51;100.00;100207.34;6247705;23;20026;-89
2022/08/09 18:33:49;;;;;;;;;;;;;;;10.68;100.00;100204.94;6245554;23;19930;-91
2022/08/09 18:36:15;;;;;;;;;;;;;;;10.55;100.00;100208.97;6247816;23;20034;-94
2022/08/09 18:38:41;;;;;;;;;;;;;;;10.57;100.00;100207.13;6218745;23;19918;-88
2022/08/09 18:41:06;;;;;;;;;;;;;;;10.79;100.00;100219.63;6247173;23;20225;-90
2022/08/09 18:43:32;;;;;;;;;;;;;;;10.67;100.00;100205.91;6247294;23;20304;-90
2022/08/09 18:45:58;;;;;;;;;;;;;;;10.67;100.00;100210.31;6246979;23;19920;-93
2022/08/09 18:48:24;;;;;;;;;;;;;;;10.75;100.00;100213.53;6246590;23;19957;-87
2022/08/09 18:50:52;;;;;;;;;;;;;;;10.70;100.00;100207.53;6247962;23;19927;-86
2022/08/09 18:53:21;;;;;;;;;;;;;;;10.63;100.00;100216.66;6244729;23;19911;-89
2022/08/09 18:55:46;;;;;;;;;;;;;;;10.72;100.00;100217.19;6246597;23;19912;-86
2022/08/09 18:58:11;;;;;;;;;;;;;;;10.72;100.00;100222.47;6220439;23;19966;-90